createdAt,value
2018-12-24T00:00:46.007Z,9.80
2018-12-24T00:03:26.867Z,9.50
2018-12-24T00:05:54.636Z,9.00
2018-12-24T00:08:41.984Z,9.50
2018-12-24T00:11:29.212Z,8.50
2018-12-24T00:14:17.794Z,8.60
2018-12-24T00:17:05.254Z,9.40
2018-12-24T00:19:52.612Z,9.60
2018-12-24T00:22:39.858Z,9.80
2018-12-24T00:25:27.213Z,9.80
2018-12-24T00:28:14.606Z,9.70
2018-12-24T00:31:01.931Z,9.20
2018-12-24T00:33:29.748Z,9.80
2018-12-24T00:36:17.563Z,9.30
2018-12-24T00:39:05.582Z,9.50
2018-12-24T00:41:33.408Z,9.30
2018-12-24T00:44:01.225Z,9.30
2018-12-24T00:46:29.003Z,9.10
2018-12-24T00:48:56.841Z,9.10
2018-12-24T00:51:38.632Z,8.70
2018-12-24T00:54:26.154Z,8.20
2018-12-24T00:57:13.401Z,9.20
2018-12-24T01:00:00.717Z,8.60
2018-12-24T01:02:28.500Z,8.90
2018-12-24T01:04:56.249Z,8.90
2018-12-24T01:07:24.030Z,8.90
2018-12-24T01:10:11.764Z,8.10
2018-12-24T01:12:39.565Z,8.10
2018-12-24T01:15:07.268Z,8.80
2018-12-24T01:17:35.061Z,8.80
2018-12-24T01:20:03.040Z,8.40
2018-12-24T01:22:30.899Z,8.20
2018-12-24T01:24:58.785Z,8.60
2018-12-24T01:27:46.017Z,7.70
2018-12-24T01:30:13.872Z,8.90
2018-12-24T01:32:41.584Z,8.80
2018-12-24T01:35:09.417Z,9.00
2018-12-24T01:37:37.139Z,8.00
2018-12-24T01:40:05.044Z,8.50
2018-12-24T01:42:33.464Z,8.90
2018-12-24T01:45:01.614Z,8.90
2018-12-24T01:47:29.392Z,9.00
2018-12-24T01:50:16.710Z,8.50
2018-12-24T01:52:57.283Z,8.40
2018-12-24T01:55:25.163Z,8.30
2018-12-24T01:57:52.964Z,8.90
2018-12-24T02:00:20.747Z,8.40
2018-12-24T02:02:48.504Z,8.30
2018-12-24T02:05:16.324Z,8.50
2018-12-24T02:08:03.549Z,8.40
2018-12-24T02:10:50.981Z,7.90
2018-12-24T02:13:38.272Z,8.20
2018-12-24T02:16:06.026Z,7.90
2018-12-24T02:18:53.604Z,7.00
2018-12-24T02:21:41.018Z,7.30
2018-12-24T02:24:28.337Z,7.20
2018-12-24T02:27:15.567Z,7.60
2018-12-24T02:30:03.103Z,7.10
2018-12-24T02:32:50.317Z,6.50
2018-12-24T02:35:37.557Z,6.60
2018-12-24T02:38:05.193Z,7.70
2018-12-24T02:40:32.971Z,7.50
2018-12-24T02:43:00.770Z,7.50
2018-12-24T02:45:28.561Z,7.80
2018-12-24T02:47:56.271Z,7.80
2018-12-24T02:50:43.481Z,6.70
2018-12-24T02:53:24.615Z,7.90
2018-12-24T02:56:11.880Z,7.40
2018-12-24T02:58:59.351Z,7.40
2018-12-24T03:01:46.566Z,8.00
2018-12-24T03:04:33.760Z,7.80
2018-12-24T03:07:21.031Z,7.40
2018-12-24T03:10:08.183Z,7.60
2018-12-24T03:13:02.532Z,7.30
2018-12-24T03:15:45.220Z,7.00
2018-12-24T03:18:32.433Z,7.60
2018-12-24T03:21:19.953Z,7.50
2018-12-24T03:24:07.120Z,7.20
2018-12-24T03:26:54.350Z,7.70
2018-12-24T03:29:41.615Z,6.80
2018-12-24T03:32:28.965Z,7.40
2018-12-24T03:35:16.304Z,7.50
2018-12-24T03:38:03.539Z,7.70
2018-12-24T03:40:50.771Z,7.50
2018-12-24T03:43:38.094Z,7.40
2018-12-24T03:46:25.651Z,7.70
2018-12-24T03:49:12.899Z,7.50
2018-12-24T03:51:53.715Z,7.40
2018-12-24T03:54:41.129Z,7.10
2018-12-24T03:57:28.323Z,7.70
2018-12-24T04:00:15.570Z,7.00
2018-12-24T04:03:03.010Z,7.20
2018-12-24T04:05:50.609Z,7.10
2018-12-24T04:08:18.361Z,7.10
2018-12-24T04:10:46.116Z,7.70
2018-12-24T04:13:22.148Z,7.30
2018-12-24T04:16:03.177Z,7.40
2018-12-24T04:18:50.588Z,6.00
2018-12-24T04:21:18.333Z,7.30
2018-12-24T04:23:46.201Z,7.40
2018-12-24T04:26:33.629Z,7.30
2018-12-24T04:29:20.848Z,7.90
2018-12-24T04:32:08.072Z,7.70
2018-12-24T04:34:55.296Z,7.00
2018-12-24T04:37:42.512Z,7.00
2018-12-24T04:40:29.759Z,7.60
2018-12-24T04:43:17.000Z,7.30
2018-12-24T04:46:04.197Z,7.50
2018-12-24T04:51:21.413Z,7.80
2018-12-24T04:54:08.885Z,7.60
2018-12-24T04:56:36.740Z,7.20
2018-12-24T04:59:04.556Z,7.40
2018-12-24T05:01:32.421Z,7.10
2018-12-24T05:04:00.178Z,7.30
2018-12-24T05:06:27.879Z,7.40
2018-12-24T05:08:55.637Z,7.40
2018-12-24T05:11:23.521Z,7.40
2018-12-24T05:13:51.284Z,7.40
2018-12-24T05:16:19.057Z,7.00
2018-12-24T05:19:06.263Z,7.50
2018-12-24T05:21:53.723Z,6.80
2018-12-24T05:24:41.838Z,7.30
2018-12-24T05:27:29.050Z,6.50
2018-12-24T05:29:56.799Z,7.80
2018-12-24T05:32:44.214Z,6.80
2018-12-24T05:35:32.064Z,7.50
2018-12-24T05:38:19.283Z,6.80
2018-12-24T05:41:06.517Z,6.10
2018-12-24T05:43:54.348Z,6.80
2018-12-24T05:46:41.770Z,6.40
2018-12-24T05:49:29.403Z,6.40
2018-12-24T05:52:10.241Z,7.40
2018-12-24T05:54:57.662Z,7.50
2018-12-24T05:57:45.100Z,7.30
2018-12-24T06:00:32.381Z,7.40
2018-12-24T06:03:19.687Z,7.20
2018-12-24T06:06:06.956Z,7.50
2018-12-24T06:08:34.749Z,7.60
2018-12-24T06:11:02.540Z,7.80
2018-12-24T06:13:57.785Z,8.10
2018-12-24T06:16:39.582Z,8.30
2018-12-24T06:19:27.150Z,8.40
2018-12-24T06:22:14.346Z,7.10
2018-12-24T06:25:01.786Z,7.20
2018-12-24T06:27:49.423Z,8.40
2018-12-24T06:30:36.865Z,7.60
2018-12-24T06:33:24.096Z,8.20
2018-12-24T06:35:51.864Z,8.20
2018-12-24T06:38:39.369Z,8.00
2018-12-24T06:41:26.667Z,7.30
2018-12-24T06:44:14.318Z,8.60
2018-12-24T06:47:01.792Z,8.60
2018-12-24T06:49:29.562Z,8.40
2018-12-24T06:51:57.372Z,8.90
2018-12-24T06:54:44.788Z,9.10
2018-12-24T06:57:32.227Z,9.00
2018-12-24T07:00:19.903Z,9.20
2018-12-24T07:03:07.167Z,9.20
2018-12-24T07:05:54.450Z,9.40
2018-12-24T07:08:42.141Z,9.00
2018-12-24T07:11:30.983Z,8.90
2018-12-24T07:14:18.516Z,7.60
2018-12-24T07:17:05.983Z,7.50
2018-12-24T07:19:53.668Z,9.10
2018-12-24T07:22:40.922Z,8.80
2018-12-24T07:25:28.262Z,7.90
2018-12-24T07:28:15.719Z,9.00
2018-12-24T07:31:03.100Z,9.20
2018-12-24T07:33:50.573Z,8.10
2018-12-24T07:36:37.797Z,8.90
2018-12-24T07:39:25.228Z,8.30
2018-12-24T07:42:05.296Z,8.10
2018-12-24T07:44:33.101Z,8.60
2018-12-24T07:47:20.614Z,8.70
2018-12-24T07:50:08.419Z,8.60
2018-12-24T07:52:55.857Z,8.20
2018-12-24T07:55:24.085Z,8.30
2018-12-24T07:58:11.840Z,8.40
2018-12-24T08:00:59.097Z,8.00
2018-12-24T08:03:48.066Z,8.00
2018-12-24T08:06:15.919Z,7.80
2018-12-24T08:08:43.776Z,8.20
2018-12-24T08:11:11.640Z,8.20
2018-12-24T08:13:39.484Z,8.10
2018-12-24T08:16:26.936Z,8.20
2018-12-24T08:19:14.373Z,8.20
2018-12-24T08:22:01.869Z,8.60
2018-12-24T08:24:49.255Z,7.60
2018-12-24T08:27:36.470Z,8.40
2018-12-24T08:30:23.756Z,7.40
2018-12-24T08:33:11.243Z,8.30
2018-12-24T08:35:59.027Z,9.10
2018-12-24T08:38:46.641Z,9.00
2018-12-24T08:41:33.957Z,9.20
2018-12-24T08:44:01.788Z,8.30
2018-12-24T08:46:29.589Z,8.50
2018-12-24T08:48:57.569Z,9.00
2018-12-24T08:51:25.385Z,9.20
2018-12-24T08:53:53.213Z,9.10
2018-12-24T08:56:40.751Z,9.40
2018-12-24T08:59:08.630Z,8.70
2018-12-24T09:01:36.490Z,8.70
2018-12-24T09:04:04.332Z,8.20
2018-12-24T09:06:32.149Z,8.80
2018-12-24T09:09:00.072Z,8.60
2018-12-24T09:11:27.868Z,9.40
2018-12-24T09:13:55.638Z,8.80
2018-12-24T09:16:23.474Z,8.90
2018-12-24T09:19:11.002Z,9.20
2018-12-24T09:21:58.658Z,9.80
2018-12-24T09:24:45.963Z,9.50
2018-12-24T09:27:33.258Z,8.80
2018-12-24T09:30:14.968Z,9.90
2018-12-24T09:33:02.687Z,8.90
2018-12-24T09:35:49.919Z,9.40
2018-12-24T09:38:37.228Z,8.90
2018-12-24T09:41:04.993Z,9.10
2018-12-24T09:43:32.771Z,9.50
2018-12-24T09:46:00.656Z,9.80
2018-12-24T09:48:28.447Z,9.70
2018-12-24T09:51:15.994Z,9.80
2018-12-24T09:54:03.472Z,9.80
2018-12-24T09:56:50.763Z,8.50
2018-12-24T09:59:38.317Z,8.60
2018-12-24T10:02:19.069Z,9.00
2018-12-24T10:05:06.626Z,8.30
2018-12-24T10:07:54.276Z,8.60
2018-12-24T10:10:41.629Z,9.20
2018-12-24T10:13:28.965Z,8.30
2018-12-24T10:16:16.348Z,9.00
2018-12-24T10:18:44.155Z,9.20
2018-12-24T10:21:11.966Z,8.70
2018-12-24T10:23:39.815Z,9.20
2018-12-24T10:26:27.139Z,9.70
2018-12-24T10:28:55.014Z,9.90
2018-12-24T10:31:42.516Z,10.20
2018-12-24T10:34:29.825Z,8.90
2018-12-24T10:36:57.642Z,10.40
2018-12-24T10:39:25.646Z,10.00
2018-12-24T10:41:53.505Z,10.40
2018-12-24T10:44:21.901Z,11.00
2018-12-24T10:46:49.712Z,10.20
2018-12-24T10:49:17.707Z,10.50
2018-12-24T10:51:45.513Z,10.10
2018-12-24T10:54:32.833Z,8.70
2018-12-24T10:57:20.364Z,9.00
2018-12-24T11:00:09.664Z,8.50
2018-12-24T11:02:56.962Z,9.70
2018-12-24T11:05:44.445Z,9.10
2018-12-24T11:08:32.020Z,8.20
2018-12-24T11:11:19.347Z,9.30
2018-12-24T11:14:06.786Z,9.20
2018-12-24T11:16:54.152Z,9.50
2018-12-24T11:19:41.396Z,9.00
2018-12-24T11:22:28.982Z,9.80
2018-12-24T11:24:57.424Z,9.30
2018-12-24T11:27:25.345Z,9.10
2018-12-24T11:30:12.606Z,9.30
2018-12-24T11:33:00.203Z,9.70
2018-12-24T11:35:47.510Z,9.40
2018-12-24T11:38:34.968Z,9.30
2018-12-24T11:41:22.339Z,8.80
2018-12-24T11:44:09.733Z,9.30
2018-12-24T11:46:57.459Z,9.20
2018-12-24T11:49:25.503Z,9.60
2018-12-24T11:51:53.338Z,10.00
2018-12-24T11:54:21.219Z,9.70
2018-12-24T11:57:08.614Z,10.40
2018-12-24T11:59:56.308Z,10.30
2018-12-24T12:02:43.698Z,10.10
2018-12-24T12:05:31.025Z,9.40
2018-12-24T12:08:18.395Z,9.20
2018-12-24T12:11:05.956Z,9.20
2018-12-24T12:13:53.628Z,9.00
2018-12-24T12:16:40.986Z,9.00
2018-12-24T12:19:28.233Z,9.40
2018-12-24T12:22:15.999Z,9.00
2018-12-24T12:25:03.576Z,10.50
2018-12-24T12:27:47.805Z,11.00
2018-12-24T12:30:35.115Z,9.40
2018-12-24T12:33:23.173Z,8.50
2018-12-24T12:36:10.657Z,9.80
2018-12-24T12:39:19.800Z,9.80
2018-12-24T12:42:07.513Z,9.40
2018-12-24T12:44:55.064Z,9.40
2018-12-24T12:47:42.386Z,9.10
2018-12-24T12:50:10.190Z,10.40
2018-12-24T12:52:38.037Z,10.20
2018-12-24T12:55:05.869Z,9.60
2018-12-24T12:57:53.413Z,8.20
2018-12-24T13:00:21.181Z,9.50
2018-12-24T13:02:49.003Z,9.90
2018-12-24T13:05:36.267Z,9.20
2018-12-24T13:08:17.191Z,8.70
2018-12-24T13:11:04.770Z,10.20
2018-12-24T13:13:52.085Z,8.70
2018-12-24T13:16:39.375Z,8.70
2018-12-24T13:19:07.308Z,9.10
2018-12-24T13:21:55.041Z,7.20
2018-12-24T13:24:42.778Z,8.50
2018-12-24T13:27:30.252Z,8.70
2018-12-24T13:29:58.041Z,8.50
2018-12-24T13:32:26.527Z,8.80
2018-12-24T13:35:15.133Z,8.20
2018-12-24T13:38:02.456Z,8.60
2018-12-24T13:40:30.324Z,8.50
2018-12-24T13:43:17.590Z,8.80
2018-12-24T13:46:08.163Z,8.00
2018-12-24T13:48:55.896Z,8.80
2018-12-24T13:51:43.540Z,7.50
2018-12-24T13:54:24.717Z,7.30
2018-12-24T13:57:12.250Z,7.30
2018-12-24T13:59:59.514Z,8.60
2018-12-24T14:02:29.145Z,7.90
2018-12-24T14:04:56.951Z,8.60
2018-12-24T14:07:24.801Z,7.90
2018-12-24T14:09:52.626Z,8.70
2018-12-24T14:12:20.543Z,9.10
2018-12-24T14:15:08.092Z,8.40
2018-12-24T14:17:55.783Z,9.00
2018-12-24T14:20:23.717Z,8.10
2018-12-24T14:22:51.775Z,9.10
2018-12-24T14:25:19.873Z,9.30
2018-12-24T14:27:48.483Z,8.40
2018-12-24T14:30:16.462Z,8.30
2018-12-24T14:32:44.338Z,8.60
2018-12-24T14:35:32.055Z,8.70
2018-12-24T14:38:19.382Z,8.30
2018-12-24T14:41:07.344Z,8.60
2018-12-24T14:43:54.859Z,7.90
2018-12-24T14:46:34.809Z,8.40
2018-12-24T14:49:22.144Z,8.50
2018-12-24T14:52:09.479Z,8.60
2018-12-24T14:54:56.821Z,8.10
2018-12-24T14:57:44.517Z,8.40
2018-12-24T15:00:31.816Z,7.60
2018-12-24T15:03:19.446Z,7.80
2018-12-24T15:06:06.780Z,8.30
2018-12-24T15:08:54.536Z,8.00
2018-12-24T15:11:42.093Z,8.10
2018-12-24T15:14:29.447Z,8.20
2018-12-24T15:17:17.108Z,8.00
2018-12-24T15:19:45.113Z,8.30
2018-12-24T15:22:13.047Z,7.50
2018-12-24T15:24:40.967Z,8.50
2018-12-24T15:27:09.236Z,8.50
2018-12-24T15:29:56.834Z,8.70
2018-12-24T15:32:24.703Z,8.70
2018-12-24T15:35:12.159Z,8.40
2018-12-24T15:37:53.132Z,7.20
2018-12-24T15:40:40.442Z,7.80
2018-12-24T15:43:27.811Z,8.50
2018-12-24T15:46:15.169Z,7.70
2018-12-24T15:49:02.568Z,7.90
2018-12-24T15:51:49.916Z,8.00
2018-12-24T15:54:37.353Z,8.10
2018-12-24T15:57:24.726Z,8.50
2018-12-24T16:00:12.266Z,7.90
2018-12-24T16:02:59.631Z,6.40
2018-12-24T16:05:46.998Z,8.00
2018-12-24T16:08:34.278Z,7.80
2018-12-24T16:11:21.561Z,7.60
2018-12-24T16:14:09.129Z,7.60
2018-12-24T16:16:56.458Z,7.60
2018-12-24T16:19:43.966Z,7.00
2018-12-24T16:22:31.331Z,7.60
2018-12-24T16:25:18.834Z,7.50
2018-12-24T16:28:06.649Z,7.20
2018-12-24T16:30:53.975Z,6.50
2018-12-24T16:33:41.287Z,6.80
2018-12-24T16:36:09.130Z,6.10
2018-12-24T16:38:50.273Z,5.20
2018-12-24T16:41:18.151Z,6.20
2018-12-24T16:43:46.000Z,6.50
2018-12-24T16:46:13.901Z,6.20
2018-12-24T16:48:41.679Z,5.60
2018-12-24T16:51:29.204Z,5.20
2018-12-24T16:54:16.468Z,5.70
2018-12-24T16:57:03.979Z,6.30
2018-12-24T16:59:51.329Z,6.20
2018-12-24T17:02:38.586Z,6.00
2018-12-24T17:05:25.870Z,5.70
2018-12-24T17:08:13.391Z,5.20
2018-12-24T17:11:00.718Z,4.80
2018-12-24T17:13:47.947Z,6.30
2018-12-24T17:16:35.293Z,5.90
2018-12-24T17:19:22.524Z,5.70
2018-12-24T17:22:09.782Z,5.60
2018-12-24T17:24:57.324Z,5.90
2018-12-24T17:27:44.935Z,5.60
2018-12-24T17:30:32.204Z,5.50
2018-12-24T17:33:19.494Z,5.10
2018-12-24T17:36:06.732Z,5.40
2018-12-24T17:38:34.623Z,5.20
2018-12-24T17:41:02.517Z,5.30
2018-12-24T17:43:49.902Z,5.80
2018-12-24T17:46:37.213Z,5.90
2018-12-24T17:49:24.607Z,4.30
2018-12-24T17:52:11.934Z,4.80
2018-12-24T17:54:59.483Z,4.80
2018-12-24T17:57:47.026Z,4.70
2018-12-24T18:00:34.294Z,5.30
2018-12-24T18:03:21.624Z,5.30
2018-12-24T18:06:09.112Z,5.10
2018-12-24T18:08:56.565Z,5.20
2018-12-24T18:11:43.888Z,5.80
2018-12-24T18:14:31.209Z,5.50
2018-12-24T18:17:24.774Z,4.70
2018-12-24T18:20:08.121Z,4.80
2018-12-24T18:22:48.294Z,5.70
2018-12-24T18:25:36.029Z,4.80
2018-12-24T18:28:23.391Z,5.80
2018-12-24T18:31:11.182Z,4.80
2018-12-24T18:33:51.899Z,4.50
2018-12-24T18:36:39.394Z,5.50
2018-12-24T18:39:26.728Z,4.30
2018-12-24T18:42:13.984Z,5.40
2018-12-24T18:45:01.262Z,5.20
2018-12-24T18:47:33.166Z,5.10
2018-12-24T18:50:18.341Z,4.50
2018-12-24T18:53:05.855Z,4.80
2018-12-24T18:55:53.393Z,4.70
2018-12-24T18:58:40.649Z,4.90
2018-12-24T19:01:08.507Z,4.60
2018-12-24T19:03:36.635Z,4.40
2018-12-24T19:06:23.928Z,3.70
2018-12-24T19:09:11.234Z,4.20
2018-12-24T19:11:39.221Z,3.70
2018-12-24T19:14:07.176Z,4.10
2018-12-24T19:16:34.902Z,4.30
2018-12-24T19:19:13.521Z,4.00
2018-12-24T19:21:44.031Z,4.00
2018-12-24T19:24:11.239Z,4.10
2018-12-24T19:26:39.080Z,3.80
2018-12-24T19:29:26.336Z,3.40
2018-12-24T19:32:13.611Z,3.90
2018-12-24T19:35:00.993Z,3.80
2018-12-24T19:37:40.941Z,4.00
2018-12-24T19:40:28.527Z,3.80
2018-12-24T19:43:15.814Z,3.00
2018-12-24T19:46:03.139Z,4.20
2018-12-24T19:48:50.478Z,3.60
2018-12-24T19:51:37.806Z,3.80
2018-12-24T19:54:25.302Z,4.20
2018-12-24T19:57:12.567Z,3.80
2018-12-24T19:59:40.336Z,4.10
2018-12-24T20:02:08.169Z,4.60
2018-12-24T20:04:55.652Z,4.50
2018-12-24T20:07:42.989Z,3.20
2018-12-24T20:10:33.174Z,3.80
2018-12-24T20:13:20.548Z,4.70
2018-12-24T20:16:08.076Z,4.50
2018-12-24T20:18:55.452Z,4.90
2018-12-24T20:21:23.255Z,5.10
2018-12-24T20:24:10.666Z,4.40
2018-12-24T20:26:38.578Z,5.20
2018-12-24T20:29:06.353Z,5.20
2018-12-24T20:31:34.143Z,5.00
2018-12-24T20:34:21.466Z,5.10
2018-12-24T20:37:09.578Z,4.60
2018-12-24T20:39:51.529Z,4.70
2018-12-24T20:42:38.844Z,4.70
2018-12-24T20:45:26.155Z,4.20
2018-12-24T20:48:13.433Z,4.40
2018-12-24T20:51:00.714Z,4.30
2018-12-24T20:53:28.569Z,4.50
2018-12-24T20:56:16.006Z,4.70
2018-12-24T20:59:03.253Z,4.60
2018-12-24T21:01:58.973Z,4.60
2018-12-24T21:04:46.289Z,4.50
2018-12-24T21:07:33.608Z,4.50
2018-12-24T21:10:21.164Z,4.30
2018-12-24T21:13:08.714Z,4.10
2018-12-24T21:15:55.961Z,3.10
2018-12-24T21:18:43.333Z,2.90
2018-12-24T21:21:30.679Z,4.10
2018-12-24T21:23:58.493Z,4.10
2018-12-24T21:26:26.356Z,4.20
2018-12-24T21:28:54.156Z,4.10
2018-12-24T21:31:41.558Z,3.80
2018-12-24T21:34:28.852Z,4.00
2018-12-24T21:37:16.224Z,4.10
2018-12-24T21:40:03.561Z,2.90
2018-12-24T21:42:31.472Z,3.80
2018-12-24T21:45:18.831Z,3.80
2018-12-24T21:48:06.205Z,2.90
2018-12-24T21:51:07.574Z,4.00
2018-12-24T21:53:42.990Z,4.00
2018-12-24T21:56:30.495Z,3.90
2018-12-24T21:59:17.819Z,3.40
2018-12-24T22:02:05.592Z,3.80
2018-12-24T22:04:55.133Z,3.00
2018-12-24T22:07:42.433Z,3.80
2018-12-24T22:10:30.132Z,3.30
2018-12-24T22:13:17.417Z,4.00
2018-12-24T22:16:04.677Z,4.00
2018-12-24T22:18:51.932Z,3.10
2018-12-24T22:21:39.375Z,3.40
2018-12-24T22:24:26.798Z,3.60
2018-12-24T22:27:14.098Z,3.80
2018-12-24T22:30:01.369Z,2.70
2018-12-24T22:32:48.746Z,3.80
2018-12-24T22:35:36.203Z,3.40
2018-12-24T22:38:04.121Z,3.70
2018-12-24T22:40:51.415Z,3.50
2018-12-24T22:43:19.270Z,3.80
2018-12-24T22:45:47.064Z,4.00
2018-12-24T22:48:14.957Z,3.50
2018-12-24T22:51:02.248Z,3.80
2018-12-24T22:54:11.313Z,3.90
2018-12-24T22:56:39.094Z,4.00
2018-12-24T22:59:26.492Z,3.90
2018-12-24T23:02:13.941Z,2.80
2018-12-24T23:05:01.246Z,3.60
2018-12-24T23:07:29.080Z,3.30
2018-12-24T23:09:56.950Z,2.90
2018-12-24T23:12:44.305Z,1.50
2018-12-24T23:15:31.550Z,2.80
2018-12-24T23:18:18.863Z,2.60
2018-12-24T23:21:06.133Z,2.80
2018-12-24T23:23:53.379Z,1.80
2018-12-24T23:26:40.694Z,2.20
2018-12-24T23:29:28.098Z,2.30
2018-12-24T23:32:15.361Z,2.20
2018-12-24T23:35:02.595Z,2.80
2018-12-24T23:37:43.380Z,2.90
2018-12-24T23:40:32.011Z,3.10
2018-12-24T23:43:19.782Z,2.40
2018-12-24T23:46:07.047Z,2.00
2018-12-24T23:48:57.797Z,3.20
2018-12-24T23:51:43.497Z,3.10
2018-12-24T23:54:30.808Z,2.30
2018-12-24T23:57:18.080Z,2.40
